Time;durP1;ratioP1;P1;durP2;ratioP2;P2;SDS_P1;SDS_P2;PMS_P1;PMS_P2;Temp;Humidity;BMP_temperature;BMP_pressure;BME280_temperature;BME280_humidity;BME280_pressure;Samples;Min_cycle;Max_cycle;Signal;HPM_P1;HPM_P2
2022/05/10 00:01:53;;;;;;;10.70;6.00;;;10.50;99.90;;;;;;5102535;28;20547;-81
2022/05/10 00:04:19;;;;;;;6.87;5.60;;;10.50;99.90;;;;;;5102196;28;20276;-81
2022/05/10 00:06:47;;;;;;;9.30;5.50;;;10.40;99.90;;;;;;5102265;28;20628;-81
2022/05/10 00:09:14;;;;;;;6.77;5.40;;;10.50;99.90;;;;;;5102191;28;20188;-81
2022/05/10 00:11:40;;;;;;;5.57;5.03;;;10.40;99.90;;;;;;5120394;28;20174;-81
2022/05/10 00:14:06;;;;;;;6.73;4.80;;;10.40;99.90;;;;;;5120056;28;20203;-81
2022/05/10 00:16:39;;;;;;;6.67;5.20;;;10.40;99.90;;;;;;5120427;28;20566;-81
2022/05/10 00:19:04;;;;;;;6.80;5.00;;;10.40;99.90;;;;;;5102288;28;20214;-81
2022/05/10 00:21:30;;;;;;;7.73;5.60;;;10.40;99.90;;;;;;5120024;28;20171;-81
2022/05/10 00:23:56;;;;;;;6.43;4.90;;;;;;;;;;5103638;28;20201;-81
2022/05/10 00:26:22;;;;;;;7.70;5.20;;;10.30;99.90;;;;;;5100737;28;20183;-80
2022/05/10 00:28:48;;;;;;;5.77;4.47;;;10.30;99.90;;;;;;5100362;28;20177;-81
2022/05/10 00:31:15;;;;;;;6.03;5.07;;;10.30;99.90;;;;;;5118201;28;20176;-81
2022/05/10 00:33:41;;;;;;;10.73;5.00;;;10.20;99.90;;;;;;5118336;28;20197;-81
2022/05/10 00:36:10;;;;;;;6.63;5.00;;;10.20;99.90;;;;;;5117882;28;20659;-80
2022/05/10 00:38:38;;;;;;;7.27;5.03;;;10.20;99.90;;;;;;5117691;28;20184;-81
2022/05/10 00:41:29;;;;;;;6.60;4.67;;;10.20;99.90;;;;;;5098785;28;20231;-81
2022/05/10 00:44:17;;;;;;;5.93;4.93;;;10.20;99.90;;;;;;5101454;28;20218;-82
2022/05/10 00:46:46;;;;;;;6.40;5.20;;;10.30;99.90;;;;;;5120122;28;20173;-81
2022/05/10 00:49:36;;;;;;;5.80;4.83;;;10.10;99.90;;;;;;5120517;28;20176;-82
2022/05/10 00:52:24;;;;;;;6.47;5.03;;;9.90;99.90;;;;;;5102520;28;20193;-82
2022/05/10 00:55:07;;;;;;;5.53;4.70;;;10.10;99.90;;;;;;5101435;28;20511;-82
2022/05/10 00:57:40;;;;;;;5.13;4.03;;;10.00;99.90;;;;;;5101679;28;20175;-82
2022/05/10 01:00:06;;;;;;;5.27;4.77;;;;;;;;;;5119486;28;20213;-82
2022/05/10 01:02:45;;;;;;;5.83;4.97;;;9.90;99.90;;;;;;5101826;28;20586;-82
2022/05/10 01:05:23;;;;;;;6.43;4.60;;;9.70;99.90;;;;;;5120321;28;20190;-82
2022/05/10 01:07:57;;;;;;;7.60;5.77;;;9.90;99.90;;;;;;5101698;28;20525;-82
2022/05/10 01:10:38;;;;;;;5.60;4.47;;;9.70;99.90;;;;;;5101201;28;20161;-82
2022/05/10 01:13:22;;;;;;;5.73;4.67;;;9.70;99.90;;;;;;5119853;28;20214;-82
2022/05/10 01:16:05;;;;;;;9.90;5.43;;;9.60;99.90;;;;;;5120241;28;20163;-82
2022/05/10 01:18:31;;;;;;;5.93;5.27;;;9.60;99.90;;;;;;5119963;28;20148;-81
2022/05/10 01:21:09;;;;;;;6.70;5.13;;;9.70;99.90;;;;;;5119163;28;20283;-82
2022/05/10 01:24:12;;;;;;;6.37;5.00;;;9.60;99.90;;;;;;5119692;28;20241;-82
2022/05/10 01:26:56;;;;;;;10.37;5.40;;;9.60;99.90;;;;;;5118635;28;20179;-82
2022/05/10 01:29:41;;;;;;;11.53;7.90;;;9.50;99.90;;;;;;5101354;28;20198;-82
2022/05/10 01:35:02;;;;;;;12.60;7.30;;;9.50;99.90;;;;;;5119723;28;20167;-82
2022/05/10 01:37:32;;;;;;;8.67;7.20;;;9.50;99.90;;;;;;5101247;28;20229;-82
2022/05/10 01:40:04;;;;;;;12.23;8.57;;;9.50;99.90;;;;;;5119301;28;20187;-82
2022/05/10 01:42:55;;;;;;;10.63;7.97;;;9.50;99.90;;;;;;5101058;28;20179;-82
2022/05/10 01:45:39;;;;;;;10.50;8.20;;;9.40;99.90;;;;;;5101677;28;20249;-82
2022/05/10 01:48:09;;;;;;;9.83;7.40;;;9.50;99.90;;;;;;5101220;28;20536;-82
2022/05/10 01:50:45;;;;;;;8.23;6.17;;;9.40;99.90;;;;;;5100547;28;20696;-82
2022/05/10 01:53:18;;;;;;;8.27;6.23;;;9.50;99.90;;;;;;5119170;28;20193;-82
2022/05/10 01:56:09;;;;;;;5.60;5.10;;;9.50;99.90;;;;;;5124635;28;20200;-81
2022/05/10 01:58:37;;;;;;;5.90;5.30;;;9.40;99.90;;;;;;5119305;28;20195;-82
2022/05/10 02:01:15;;;;;;;6.30;5.30;;;9.40;99.90;;;;;;5101048;28;20532;-82
2022/05/10 02:03:59;;;;;;;7.37;5.20;;;9.50;99.90;;;;;;5100244;28;20201;-81
2022/05/10 02:06:51;;;;;;;6.23;4.90;;;9.60;99.90;;;;;;5100303;28;20186;-81
2022/05/10 02:09:26;;;;;;;6.57;5.00;;;9.70;99.90;;;;;;5118668;28;20203;-81
2022/05/10 02:12:43;;;;;;;7.83;5.53;;;9.40;99.90;;;;;;5100418;28;20196;-82
2022/05/10 02:15:40;;;;;;;6.07;4.70;;;9.40;99.90;;;;;;5016404;28;20258;-81
2022/05/10 02:18:15;;;;;;;5.50;4.70;;;9.60;99.90;;;;;;4978821;28;20212;-82
2022/05/10 02:20:52;;;;;;;6.83;5.30;;;9.40;99.90;;;;;;5101102;28;20659;-82
2022/05/10 02:23:45;;;;;;;7.50;5.37;;;9.40;99.90;;;;;;5118446;28;20247;-81
2022/05/10 02:26:15;;;;;;;5.23;4.33;;;9.30;99.90;;;;;;5118898;28;20157;-82
2022/05/10 02:28:54;;;;;;;8.80;5.00;;;9.30;99.90;;;;;;5118484;28;20167;-82
2022/05/10 02:34:34;;;;;;;7.17;5.33;;;9.20;99.90;;;;;;5118015;28;20208;-82
2022/05/10 02:37:00;;;;;;;7.33;5.50;;;9.20;99.90;;;;;;5118517;28;20683;-81
2022/05/10 02:39:25;;;;;;;7.40;5.53;;;9.10;99.90;;;;;;5099647;28;20201;-82
2022/05/10 02:41:52;;;;;;;6.03;4.97;;;9.20;99.90;;;;;;5118324;28;20199;-82
2022/05/10 02:44:18;;;;;;;6.07;5.00;;;9.10;99.90;;;;;;5099624;28;20673;-81
2022/05/10 02:46:44;;;;;;;10.90;6.10;;;9.00;99.90;;;;;;5099455;28;20172;-81
2022/05/10 02:49:10;;;;;;;4.80;4.23;;;;;;;;;;5117728;28;20622;-81
2022/05/10 02:51:35;;;;;;;6.47;5.40;;;8.80;99.90;;;;;;5117201;28;20172;-81
2022/05/10 02:54:01;;;;;;;7.43;5.80;;;;;;;;;;5099239;28;20220;-82
2022/05/10 02:56:28;;;;;;;5.87;5.27;;;8.80;99.90;;;;;;5117243;28;20679;-81
2022/05/10 02:59:03;;;;;;;6.83;5.27;;;8.80;99.90;;;;;;5099326;28;20233;-81
2022/05/10 03:01:38;;;;;;;6.77;5.37;;;8.50;99.90;;;;;;5098947;28;20181;-81
2022/05/10 03:04:06;;;;;;;6.57;5.07;;;8.70;99.90;;;;;;5117373;28;20218;-82
2022/05/10 03:06:32;;;;;;;6.53;5.13;;;8.80;99.90;;;;;;5116629;28;20646;-81
2022/05/10 03:08:58;;;;;;;7.40;5.03;;;8.80;99.90;;;;;;5098697;28;20516;-81
2022/05/10 03:11:25;;;;;;;6.83;5.00;;;8.70;99.90;;;;;;5117129;28;20172;-82
2022/05/10 03:13:52;;;;;;;5.77;4.73;;;8.60;99.90;;;;;;5117135;28;20216;-81
2022/05/10 03:16:18;;;;;;;7.00;5.23;;;8.50;99.90;;;;;;5117165;28;20176;-82
2022/05/10 03:18:44;;;;;;;6.17;4.53;;;;;;;;;;5098721;28;20181;-81
2022/05/10 03:21:10;;;;;;;6.13;4.70;;;8.40;99.90;;;;;;5098181;28;20176;-81
2022/05/10 03:23:36;;;;;;;9.53;4.80;;;8.40;99.90;;;;;;5116765;28;20199;-81
2022/05/10 03:26:02;;;;;;;6.23;5.10;;;;;;;;;;5098037;28;20183;-81
2022/05/10 03:28:28;;;;;;;5.73;4.80;;;8.40;99.90;;;;;;5097760;28;20191;-81
2022/05/10 03:30:55;;;;;;;8.17;5.40;;;8.50;99.90;;;;;;5100258;28;20629;-81
2022/05/10 03:33:21;;;;;;;5.77;5.17;;;8.50;99.90;;;;;;5101615;28;20226;-81
2022/05/10 03:35:46;;;;;;;5.77;4.07;;;8.40;99.90;;;;;;5119242;28;20207;-82
2022/05/10 03:38:12;;;;;;;6.03;4.80;;;8.50;99.90;;;;;;5118671;28;20259;-82
2022/05/10 03:40:41;;;;;;;5.53;4.70;;;;;;;;;;5100967;28;20279;-81
2022/05/10 03:43:08;;;;;;;5.53;4.90;;;8.50;99.90;;;;;;5122475;28;20645;-81
2022/05/10 03:45:35;;;;;;;5.67;5.07;;;8.50;99.90;;;;;;5103624;28;20178;-81
2022/05/10 03:48:01;;;;;;;6.57;4.90;;;8.50;99.90;;;;;;5122208;28;20169;-82
2022/05/10 03:50:27;;;;;;;5.67;4.50;;;8.50;99.90;;;;;;5121618;28;20200;-81
2022/05/10 03:52:52;;;;;;;5.73;5.10;;;8.50;99.90;;;;;;5103406;28;20197;-82
2022/05/10 03:55:24;;;;;;;5.30;4.70;;;8.50;99.90;;;;;;5103348;28;20212;-81
2022/05/10 03:57:51;;;;;;;6.00;4.53;;;8.40;99.90;;;;;;5122048;28;20524;-81
2022/05/10 04:00:22;;;;;;;6.73;4.73;;;8.40;99.90;;;;;;5104116;28;20178;-82
2022/05/10 04:02:48;;;;;;;4.53;3.90;;;8.30;99.90;;;;;;5122005;28;20191;-81
2022/05/10 04:05:16;;;;;;;8.23;4.80;;;8.30;99.90;;;;;;5121948;28;20186;-81
2022/05/10 04:07:42;;;;;;;7.43;4.13;;;8.30;99.90;;;;;;5104501;28;20632;-82
2022/05/10 04:10:10;;;;;;;4.80;4.30;;;8.20;99.90;;;;;;5122015;28;20234;-81
2022/05/10 04:12:37;;;;;;;5.80;4.23;;;8.20;99.90;;;;;;5111218;28;20214;-81
2022/05/10 04:15:05;;;;;;;5.67;4.37;;;8.20;99.90;;;;;;5121387;28;20268;-81
2022/05/10 04:17:30;;;;;;;4.87;4.40;;;8.20;99.90;;;;;;5121669;28;20177;-82
2022/05/10 04:19:56;;;;;;;4.77;4.20;;;8.10;99.90;;;;;;5120939;28;20173;-82
2022/05/10 04:22:22;;;;;;;6.90;4.00;;;8.20;99.90;;;;;;5121724;28;20230;-81
2022/05/10 04:24:47;;;;;;;4.93;4.43;;;8.10;99.90;;;;;;5121281;28;20228;-81
2022/05/10 04:27:13;;;;;;;5.13;4.60;;;8.20;99.90;;;;;;5103180;28;20181;-82
2022/05/10 04:29:39;;;;;;;5.60;3.90;;;8.20;99.90;;;;;;5120843;28;20184;-82
2022/05/10 04:32:05;;;;;;;8.00;4.60;;;8.30;99.90;;;;;;5121189;28;20185;-82
2022/05/10 04:34:31;;;;;;;4.43;3.80;;;8.40;99.90;;;;;;5103134;28;20219;-82
2022/05/10 04:36:56;;;;;;;4.40;3.40;;;8.40;99.90;;;;;;5121210;28;20201;-82
2022/05/10 04:39:22;;;;;;;7.40;4.00;;;8.50;99.90;;;;;;5102619;28;20180;-82
2022/05/10 04:41:52;;;;;;;4.60;3.53;;;8.60;99.90;;;;;;5101999;28;20217;-82
2022/05/10 04:44:17;;;;;;;4.90;4.20;;;8.60;99.90;;;;;;5121183;28;20203;-81
2022/05/10 04:46:43;;;;;;;6.40;3.77;;;8.70;99.90;;;;;;5121482;28;20179;-82
2022/05/10 04:49:12;;;;;;;6.27;4.03;;;8.70;99.90;;;;;;5120828;28;20182;-81
2022/05/10 04:51:38;;;;;;;4.87;3.83;;;8.80;99.90;;;;;;5120864;28;20352;-82
2022/05/10 04:54:05;;;;;;;5.67;3.93;;;8.80;99.90;;;;;;5102416;28;20214;-82
2022/05/10 04:56:31;;;;;;;4.83;3.93;;;8.80;99.90;;;;;;5102327;28;20278;-81
2022/05/10 04:58:57;;;;;;;5.90;4.17;;;;;;;;;;5104688;28;20207;-81
2022/05/10 05:01:26;;;;;;;4.70;3.93;;;9.00;99.90;;;;;;5120373;28;20176;-82
2022/05/10 05:03:55;;;;;;;4.23;3.53;;;9.00;99.90;;;;;;5102095;28;20205;-82
2022/05/10 05:06:22;;;;;;;5.20;3.63;;;9.10;99.90;;;;;;5101747;28;20184;-82
2022/05/10 05:08:47;;;;;;;4.63;3.40;;;9.10;99.90;;;;;;5101306;28;20179;-82
2022/05/10 05:11:13;;;;;;;8.30;3.87;;;9.30;99.90;;;;;;5119686;28;20219;-81
2022/05/10 05:13:39;;;;;;;4.57;4.03;;;9.40;99.90;;;;;;5119906;28;20702;-80
2022/05/10 05:16:05;;;;;;;5.20;3.97;;;9.40;99.90;;;;;;5103137;28;20174;-86
2022/05/10 05:18:31;;;;;;;3.77;3.47;;;9.50;99.90;;;;;;5106231;28;20178;-86
2022/05/10 05:20:57;;;;;;;5.63;3.43;;;9.70;99.90;;;;;;5120583;28;20717;-87
2022/05/10 05:23:23;;;;;;;5.07;3.00;;;;;;;;;;5121785;28;20192;-86
2022/05/10 05:25:49;;;;;;;3.77;3.37;;;9.90;99.90;;;;;;5102728;28;20191;-87
2022/05/10 05:28:15;;;;;;;3.93;3.53;;;9.90;99.90;;;;;;5121584;28;20238;-86
2022/05/10 05:30:43;;;;;;;6.77;3.40;;;10.10;99.90;;;;;;5103938;28;20250;-87
2022/05/10 05:33:08;;;;;;;4.20;3.80;;;10.20;99.90;;;;;;5103319;28;20204;-85
2022/05/10 05:35:34;;;;;;;4.77;3.03;;;10.30;99.90;;;;;;5104141;28;20183;-88
2022/05/10 05:38:00;;;;;;;5.10;3.10;;;;;;;;;;5121738;28;20227;-87
2022/05/10 05:40:26;;;;;;;3.10;2.80;;;10.50;99.90;;;;;;5103660;28;20179;-85
2022/05/10 05:42:52;;;;;;;3.93;3.13;;;;;;;;;;5102037;28;20663;-82
2022/05/10 05:45:20;;;;;;;4.00;2.93;;;10.60;99.90;;;;;;5106064;27;20181;-85
2022/05/10 05:47:46;;;;;;;4.57;3.37;;;10.70;99.90;;;;;;5093436;28;20209;-86
2022/05/10 05:50:14;;;;;;;4.90;3.13;;;10.80;99.90;;;;;;5103238;27;20191;-85
2022/05/10 05:52:41;;;;;;;4.47;3.30;;;10.80;99.90;;;;;;5139468;27;20675;-84
2022/05/10 05:55:08;;;;;;;4.13;3.33;;;11.00;99.90;;;;;;5099669;28;20208;-84
2022/05/10 05:57:34;;;;;;;3.80;3.30;;;11.10;99.90;;;;;;5101866;28;20260;-83
2022/05/10 06:00:00;;;;;;;6.60;3.20;;;11.20;99.90;;;;;;5107417;28;20187;-83
2022/05/10 06:02:26;;;;;;;5.20;3.40;;;11.40;99.90;;;;;;5132916;28;20190;-83
2022/05/10 06:04:52;;;;;;;3.23;2.73;;;11.40;99.90;;;;;;5101699;28;20180;-84
2022/05/10 06:07:18;;;;;;;3.53;2.87;;;11.50;99.90;;;;;;5101382;28;20182;-84
2022/05/10 06:09:46;;;;;;;3.23;2.93;;;11.70;99.90;;;;;;5091405;28;20190;-83
2022/05/10 06:12:16;;;;;;;3.63;2.57;;;11.70;99.90;;;;;;5080272;28;20184;-82
2022/05/10 06:14:42;;;;;;;5.77;2.83;;;11.80;99.90;;;;;;5079750;28;20216;-84
2022/05/10 06:17:09;;;;;;;7.43;3.10;;;12.00;99.90;;;;;;5091251;28;20217;-84
2022/05/10 06:19:37;;;;;;;3.83;2.50;;;12.00;99.90;;;;;;5099808;28;20182;-84
2022/05/10 06:22:04;;;;;;;4.47;2.63;;;12.10;99.90;;;;;;5097476;28;20187;-84
2022/05/10 06:24:30;;;;;;;4.00;2.30;;;12.30;99.90;;;;;;5100959;28;20260;-84
2022/05/10 06:26:56;;;;;;;3.33;2.80;;;12.40;99.90;;;;;;5117394;28;20183;-86
2022/05/10 06:29:21;;;;;;;7.10;2.57;;;12.50;99.90;;;;;;5100049;28;20171;-85
2022/05/10 06:31:48;;;;;;;2.57;2.33;;;;;;;;;;5117442;28;20258;-81
2022/05/10 06:34:15;;;;;;;4.27;2.60;;;12.70;99.90;;;;;;5098102;28;20290;-81
2022/05/10 06:36:41;;;;;;;2.87;2.40;;;12.90;99.90;;;;;;5098370;28;20536;-81
2022/05/10 06:39:10;;;;;;;2.87;2.57;;;13.00;99.90;;;;;;5096667;28;20237;-83
2022/05/10 06:41:36;;;;;;;3.40;2.90;;;13.10;99.90;;;;;;5096668;28;20180;-81
2022/05/10 06:44:03;;;;;;;4.13;2.80;;;13.30;99.90;;;;;;5099864;28;20291;-81
2022/05/10 06:46:32;;;;;;;3.00;2.70;;;13.40;99.90;;;;;;5110165;28;20192;-83
2022/05/10 06:48:59;;;;;;;4.23;2.93;;;13.50;99.90;;;;;;5079631;28;20531;-83
2022/05/10 06:51:25;;;;;;;4.23;2.73;;;13.60;99.90;;;;;;5092303;28;20183;-83
2022/05/10 06:53:52;;;;;;;3.30;3.00;;;13.80;99.90;;;;;;5116654;28;20603;-83
2022/05/10 06:56:18;;;;;;;4.13;3.27;;;13.90;99.90;;;;;;5116537;28;20595;-83
2022/05/10 06:58:44;;;;;;;3.73;2.97;;;14.00;99.90;;;;;;5117479;28;20172;-83
2022/05/10 07:01:12;;;;;;;3.43;3.10;;;14.20;99.90;;;;;;5098492;28;20652;-83
2022/05/10 07:03:46;;;;;;;5.77;3.00;;;14.30;99.90;;;;;;5099627;28;20256;-83
2022/05/10 07:06:16;;;;;;;3.90;3.33;;;14.40;99.90;;;;;;5098076;28;20231;-83
2022/05/10 07:08:41;;;;;;;4.53;3.27;;;14.50;99.90;;;;;;5116944;28;20176;-83
2022/05/10 07:11:07;;;;;;;3.83;3.33;;;14.60;99.90;;;;;;5116930;28;20225;-80
2022/05/10 07:13:34;;;;;;;4.17;3.77;;;14.80;99.90;;;;;;5099711;28;20218;-81
2022/05/10 07:16:02;;;;;;;5.90;3.23;;;14.90;99.90;;;;;;5117663;28;20207;-81
2022/05/10 07:18:28;;;;;;;4.87;3.40;;;15.10;99.90;;;;;;5099997;28;20201;-81
2022/05/10 07:20:54;;;;;;;6.67;3.53;;;15.20;99.90;;;;;;5118725;28;20175;-81
2022/05/10 07:23:23;;;;;;;4.67;3.57;;;15.40;99.90;;;;;;5099579;28;20673;-81
2022/05/10 07:25:48;;;;;;;4.30;3.67;;;15.50;99.90;;;;;;5099289;28;20180;-80
2022/05/10 07:28:14;;;;;;;4.30;3.90;;;15.70;99.90;;;;;;5101046;28;20180;-79
2022/05/10 07:30:40;;;;;;;4.10;3.70;;;15.90;99.90;;;;;;5105315;28;20184;-79
2022/05/10 07:33:06;;;;;;;5.43;3.53;;;16.10;99.90;;;;;;5104878;28;20234;-79
2022/05/10 07:38:18;;;;;;;5.90;4.40;;;16.30;99.90;;;;;;5116452;28;20625;-80
2022/05/10 07:40:47;;;;;;;5.93;4.43;;;16.30;99.90;;;;;;5097928;28;20173;-80
2022/05/10 07:43:18;;;;;;;6.13;4.83;;;16.40;99.90;;;;;;5116709;28;20183;-80
2022/05/10 07:45:45;;;;;;;5.70;4.23;;;16.50;99.90;;;;;;5116853;28;20187;-80
2022/05/10 07:48:11;;;;;;;5.47;4.67;;;16.60;99.90;;;;;;5116987;28;20159;-80
2022/05/10 07:50:37;;;;;;;5.83;4.53;;;16.90;99.90;;;;;;5098215;28;20578;-80
2022/05/10 07:53:06;;;;;;;4.27;3.87;;;17.20;99.90;;;;;;5116226;28;20189;-80
2022/05/10 07:55:36;;;;;;;4.93;4.43;;;17.30;99.90;;;;;;5097938;28;20200;-80
2022/05/10 07:58:04;;;;;;;4.87;4.47;;;17.50;99.90;;;;;;5098333;28;20183;-80
2022/05/10 08:00:30;;;;;;;5.90;4.00;;;17.80;99.90;;;;;;5097525;28;20199;-80
2022/05/10 08:02:56;;;;;;;4.90;4.40;;;18.20;99.90;;;;;;5116366;28;20667;-80
2022/05/10 08:05:24;;;;;;;7.43;4.17;;;19.00;99.90;;;;;;5097787;28;20182;-80
2022/05/10 08:07:50;;;;;;;4.20;3.80;;;19.80;99.90;;;;;;5116410;28;20202;-80
2022/05/10 08:10:17;;;;;;;6.87;4.37;;;20.60;99.90;;;;;;5116215;28;20219;-80
2022/05/10 08:12:43;;;;;;;8.87;3.97;;;21.50;99.90;;;;;;5097881;28;20210;-80
2022/05/10 08:15:10;;;;;;;6.10;3.63;;;22.30;99.90;;;;;;5097804;28;20200;-80
2022/05/10 08:17:36;;;;;;;7.50;3.20;;;22.90;99.90;;;;;;5119142;28;20170;-80
2022/05/10 08:20:03;;;;;;;7.73;3.67;;;23.50;99.90;;;;;;5120282;28;20168;-80
2022/05/10 08:22:31;;;;;;;5.20;3.87;;;24.10;99.90;;;;;;5102341;28;20526;-80
2022/05/10 08:24:57;;;;;;;9.03;3.60;;;24.10;99.90;;;;;;5101996;28;20178;-80
2022/05/10 08:27:22;;;;;;;8.70;3.60;;;23.90;99.90;;;;;;5120794;28;20171;-80
2022/05/10 08:29:48;;;;;;;5.97;3.60;;;24.20;99.90;;;;;;5102238;28;20183;-80
2022/05/10 08:32:14;;;;;;;9.00;3.83;;;24.70;99.90;;;;;;5102698;28;20184;-80
2022/05/10 08:34:39;;;;;;;6.13;3.40;;;24.80;99.90;;;;;;5120684;28;20291;-80
2022/05/10 08:37:06;;;;;;;5.57;3.07;;;24.60;99.90;;;;;;5120987;28;20168;-80
2022/05/10 08:39:31;;;;;;;9.37;3.47;;;24.40;98.90;;;;;;5101944;28;20176;-81
2022/05/10 08:42:05;;;;;;;4.47;3.30;;;24.90;98.20;;;;;;5102365;28;20174;-81
2022/05/10 08:44:35;;;;;;;5.90;3.40;;;24.80;97.20;;;;;;5102510;28;20202;-80
2022/05/10 08:47:06;;;;;;;7.80;3.80;;;24.30;98.00;;;;;;5102535;28;20243;-80
2022/05/10 08:49:40;;;;;;;5.93;3.63;;;24.30;99.20;;;;;;5102857;28;20185;-82
2022/05/10 08:52:07;;;;;;;4.53;3.53;;;24.50;97.50;;;;;;5120652;28;20605;-80
2022/05/10 08:54:36;;;;;;;6.50;3.27;;;24.90;95.50;;;;;;5120639;28;20224;-80
2022/05/10 08:57:31;;;;;;;6.43;3.53;;;24.80;95.90;;;;;;5101338;28;20175;-83
2022/05/10 09:00:32;;;;;;;4.63;3.37;;;25.30;95.20;;;;;;5067007;28;20220;-80
2022/05/10 09:02:59;;;;;;;7.33;3.47;;;25.50;92.10;;;;;;5064385;28;20218;-82
2022/05/10 09:05:28;;;;;;;6.00;3.80;;;25.60;91.00;;;;;;5098712;28;20531;-83
2022/05/10 09:08:06;;;;;;;4.50;3.70;;;25.90;94.10;;;;;;5106131;28;20178;-82
2022/05/10 09:10:45;;;;;;;4.70;4.17;;;25.90;93.90;;;;;;5103120;28;20179;-82
2022/05/10 09:13:15;;;;;;;8.00;3.57;;;25.50;90.30;;;;;;5105264;28;20222;-84
2022/05/10 09:15:58;;;;;;;8.90;4.63;;;25.30;90.70;;;;;;5091127;28;20184;-84
2022/05/10 09:18:26;;;;;;;7.93;3.70;;;25.60;94.50;;;;;;5086302;28;20253;-82
2022/05/10 09:21:28;;;;;;;8.83;3.80;;;25.80;91.90;;;;;;5104796;28;20170;-84
2022/05/10 09:24:15;;;;;;;18.13;5.50;;;25.60;91.20;;;;;;5096197;28;20197;-81
2022/05/10 09:26:44;;;;;;;8.23;3.33;;;25.60;91.90;;;;;;5097297;28;20204;-81
2022/05/10 09:29:17;;;;;;;4.93;3.27;;;25.70;91.00;;;;;;5090456;28;20188;-82
2022/05/10 09:34:47;;;;;;;5.13;3.40;;;25.90;90.40;;;;;;5116746;28;20324;-83
2022/05/10 09:37:32;;;;;;;5.57;3.67;;;25.30;86.60;;;;;;5098021;28;20174;-82
2022/05/10 09:39:57;;;;;;;5.10;3.03;;;25.10;93.00;;;;;;5114110;27;20184;-84
2022/05/10 09:42:43;;;;;;;28.10;13.20;;;24.80;91.60;;;;;;5141271;27;20683;-83
2022/05/10 09:45:32;;;;;;;8.90;3.90;;;24.80;91.50;;;;;;5106190;28;20661;-81
2022/05/10 09:48:04;;;;;;;3.83;3.10;;;24.60;94.70;;;;;;5120726;28;20195;-81
2022/05/10 09:50:34;;;;;;;5.57;2.83;;;24.80;93.40;;;;;;5101832;28;20635;-81
2022/05/10 09:53:12;;;;;;;3.90;3.47;;;24.90;90.20;;;;;;5100769;28;20198;-81
2022/05/10 09:55:51;;;;;;;5.17;3.27;;;25.00;90.20;;;;;;5100265;28;20188;-81
2022/05/10 09:58:22;;;;;;;5.90;3.23;;;25.20;90.60;;;;;;5121257;28;20177;-84
2022/05/10 10:00:52;;;;;;;4.23;3.10;;;25.60;90.00;;;;;;5103267;28;20298;-82
2022/05/10 10:03:28;;;;;;;3.97;3.33;;;25.30;87.00;;;;;;5102662;28;20198;-81
2022/05/10 10:06:11;;;;;;;6.53;3.40;;;25.50;88.40;;;;;;5100956;28;20185;-80
2022/05/10 10:08:39;;;;;;;4.63;2.93;;;25.20;88.60;;;;;;5115993;28;20206;-78
2022/05/10 10:11:26;;;;;;;4.57;3.07;;;24.10;89.90;;;;;;5116176;28;20174;-77
2022/05/10 10:13:52;;;;;;;3.67;3.37;;;23.00;94.90;;;;;;5112465;27;20222;-77
2022/05/10 10:16:27;;;;;;;4.27;3.40;;;23.30;95.10;;;;;;5094925;28;20579;-77
2022/05/10 10:18:59;;;;;;;3.60;3.00;;;24.30;94.90;;;;;;5097164;28;20224;-77
2022/05/10 10:21:25;;;;;;;4.20;3.00;;;25.10;92.00;;;;;;5115049;28;20241;-77
2022/05/10 10:24:11;;;;;;;5.23;2.80;;;25.10;92.90;;;;;;5114949;28;20723;-77
2022/05/10 10:26:51;;;;;;;4.90;2.70;;;24.90;90.00;;;;;;5115182;28;20174;-74
2022/05/10 10:29:28;;;;;;;2.80;2.60;;;25.10;90.30;;;;;;5114304;28;20175;-75
2022/05/10 10:32:04;;;;;;;3.10;2.80;;;24.60;86.70;;;;;;5095343;28;20517;-75
2022/05/10 10:34:49;;;;;;;5.03;2.50;;;23.80;86.70;;;;;;5094287;28;20697;-77
2022/05/10 10:37:38;;;;;;;3.33;2.90;;;24.00;89.40;;;;;;5094279;28;20233;-76
2022/05/10 10:40:26;;;;;;;3.70;2.87;;;24.70;92.90;;;;;;5093663;28;20622;-75
2022/05/10 10:43:18;;;;;;;2.67;2.47;;;25.30;90.90;;;;;;5096196;28;20203;-76
2022/05/10 10:45:51;;;;;;;2.83;2.60;;;25.80;81.50;;;;;;5114588;28;20183;-75
2022/05/10 10:48:26;;;;;;;3.00;2.70;;;26.10;85.30;;;;;;5114408;28;20172;-76
2022/05/10 10:50:52;;;;;;;4.80;2.80;;;26.40;84.10;;;;;;5114346;28;20243;-76
2022/05/10 10:53:20;;;;;;;4.50;3.10;;;26.50;86.50;;;;;;5109412;28;20193;-76
2022/05/10 10:56:04;;;;;;;6.30;2.60;;;26.50;89.40;;;;;;5094333;28;20168;-76
2022/05/10 10:59:04;;;;;;;3.17;2.87;;;27.00;91.10;;;;;;5093952;28;20516;-76
2022/05/10 11:01:47;;;;;;;3.23;2.93;;;27.50;84.00;;;;;;5093759;28;20178;-76
2022/05/10 11:04:41;;;;;;;4.07;3.27;;;27.30;82.70;;;;;;5093274;28;20210;-76
2022/05/10 11:07:18;;;;;;;5.93;3.03;;;25.60;84.60;;;;;;5075564;28;20229;-76
2022/05/10 11:09:53;;;;;;;4.40;3.07;;;24.50;90.50;;;;;;5111912;28;20632;-76
2022/05/10 11:12:24;;;;;;;2.83;2.60;;;24.90;90.50;;;;;;5114122;28;20158;-76
2022/05/10 11:15:07;;;;;;;3.47;3.17;;;25.60;88.60;;;;;;5107883;28;20177;-75
2022/05/10 11:17:51;;;;;;;2.87;2.57;;;26.30;91.10;;;;;;5095791;28;20154;-81
2022/05/10 11:20:20;;;;;;;3.43;2.87;;;26.90;89.20;;;;;;5097109;28;20183;-81
2022/05/10 11:23:06;;;;;;;4.30;3.20;;;26.60;82.80;;;;;;5098517;28;20206;-80
2022/05/10 11:25:46;;;;;;;5.00;2.63;;;26.80;85.10;;;;;;5098058;28;20209;-80
2022/05/10 11:28:30;;;;;;;4.20;2.73;;;27.50;90.20;;;;;;5098830;28;20690;-80
2022/05/10 11:31:12;;;;;;;2.90;2.60;;;28.10;85.00;;;;;;5117231;28;20157;-80
2022/05/10 11:33:52;;;;;;;3.87;2.73;;;28.50;81.30;;;;;;5113820;28;22314;-80
2022/05/10 11:36:40;;;;;;;3.63;3.03;;;28.30;79.20;;;;;;5096667;28;20159;-79
2022/05/10 11:39:43;;;;;;;4.13;2.93;;;26.80;76.20;;;;;;5078639;28;20212;-79
2022/05/10 11:42:37;;;;;;;3.13;2.73;;;25.10;80.30;;;;;;5078567;28;20176;-79
2022/05/10 11:45:27;;;;;;;3.60;2.87;;;24.60;81.40;;;;;;5091957;28;20230;-79
2022/05/10 11:48:01;;;;;;;4.20;2.80;;;24.50;86.40;;;;;;5098786;28;20247;-79
2022/05/10 11:50:35;;;;;;;4.27;2.90;;;25.80;90.10;;;;;;5117566;28;20157;-79
2022/05/10 11:53:11;;;;;;;7.63;2.60;;;26.90;84.80;;;;;;5100906;28;20191;-79
2022/05/10 11:55:47;;;;;;;3.33;2.17;;;27.70;77.10;;;;;;5103193;28;20175;-78
2022/05/10 11:58:14;;;;;;;6.93;3.40;;;27.30;76.80;;;;;;5097817;28;20157;-77
2022/05/10 12:00:50;;;;;;;2.77;2.53;;;26.60;81.20;;;;;;5116389;28;20176;-77
2022/05/10 12:03:43;;;;;;;2.37;2.17;;;25.60;74.10;;;;;;5117894;28;20195;-77
2022/05/10 12:06:24;;;;;;;3.83;2.50;;;26.00;72.90;;;;;;5118888;28;20278;-77
2022/05/10 12:08:54;;;;;;;2.53;2.33;;;27.10;74.90;;;;;;5080887;28;20195;-77
2022/05/10 12:11:28;;;;;;;3.60;2.80;;;26.70;76.60;;;;;;5103072;28;20175;-77
2022/05/10 12:22:16;;;;;;;6.10;2.90;;;28.00;78.90;;;;;;5109021;28;20188;-77
2022/05/10 12:24:47;;;;;;;11.03;2.93;;;27.80;78.20;;;;;;5124741;27;20248;-76
2022/05/10 12:27:13;;;;;;;2.50;2.30;;;27.80;74.60;;;;;;5118192;28;20172;-78
2022/05/10 12:29:39;;;;;;;5.57;2.83;;;28.90;75.00;;;;;;5117463;28;20164;-76
2022/05/10 12:32:18;;;;;;;4.10;2.80;;;29.40;68.80;;;;;;5098974;28;20305;-77
2022/05/10 12:34:52;;;;;;;4.07;2.40;;;29.90;72.70;;;;;;5119223;27;20669;-78
2022/05/10 12:37:35;;;;;;;3.23;2.50;;;30.10;75.00;;;;;;5139563;27;20166;-77
2022/05/10 12:40:10;;;;;;;2.87;2.27;;;30.10;75.20;;;;;;5117053;28;20174;-77
2022/05/10 12:42:41;;;;;;;2.63;2.43;;;29.20;62.00;;;;;;5121424;28;20170;-78
2022/05/10 12:45:25;;;;;;;3.93;2.60;;;28.90;68.60;;;;;;5120683;28;20216;-78
2022/05/10 12:48:10;;;;;;;5.17;2.20;;;29.20;65.10;;;;;;5103761;28;20245;-78
2022/05/10 12:50:58;;;;;;;5.87;3.00;;;27.90;70.10;;;;;;5120258;28;20168;-82
2022/05/10 12:53:48;;;;;;;5.40;2.57;;;27.10;69.20;;;;;;5109946;28;20193;-79
2022/05/10 12:56:22;;;;;;;5.80;3.50;;;27.40;71.10;;;;;;5087559;28;20241;-79
2022/05/10 12:58:56;;;;;;;4.30;2.10;;;27.20;75.90;;;;;;5083605;28;20206;-79
2022/05/10 13:01:32;;;;;;;5.20;2.70;;;27.80;68.90;;;;;;5115966;28;20642;-79
2022/05/10 13:04:13;;;;;;;5.20;2.10;;;28.60;63.20;;;;;;5105762;28;20218;-79
2022/05/10 13:07:17;;;;;;;3.73;1.90;;;28.60;62.20;;;;;;5124612;28;20160;-80
2022/05/10 13:09:44;;;;;;;2.03;1.73;;;26.60;63.50;;;;;;5105611;28;20172;-79
2022/05/10 13:12:14;;;;;;;2.13;1.60;;;25.70;62.40;;;;;;5104737;28;20211;-79
2022/05/10 13:14:45;;;;;;;3.93;1.83;;;25.50;69.40;;;;;;5123901;28;20255;-79
2022/05/10 13:17:24;;;;;;;2.57;1.60;;;26.50;70.10;;;;;;5124428;28;20651;-81
2022/05/10 13:19:50;;;;;;;1.60;1.50;;;27.80;66.00;;;;;;5103642;28;20547;-81
2022/05/10 13:22:18;;;;;;;7.47;2.10;;;28.90;54.50;;;;;;5105015;28;20184;-80
2022/05/10 13:24:53;;;;;;;4.67;1.70;;;29.20;69.80;;;;;;5124509;28;20201;-80
2022/05/10 13:27:34;;;;;;;2.33;1.80;;;29.80;55.70;;;;;;5106303;28;20203;-80
2022/05/10 13:30:08;;;;;;;2.60;1.90;;;29.90;65.90;;;;;;5112131;27;20177;-80
2022/05/10 13:32:34;;;;;;;1.87;1.67;;;30.10;57.70;;;;;;5105919;28;20635;-80
2022/05/10 13:35:08;;;;;;;2.77;1.60;;;30.30;54.40;;;;;;5122502;28;20187;-81
2022/05/10 13:37:36;;;;;;;3.40;1.90;;;30.30;57.80;;;;;;5104990;28;20215;-79
2022/05/10 13:40:12;;;;;;;1.80;1.70;;;30.30;54.90;;;;;;5104358;28;20170;-80